createdAt,value
2017-06-10T00:00:16.514Z,0
2017-06-10T00:01:16.564Z,0
2017-06-10T00:02:16.621Z,0
2017-06-10T00:03:16.672Z,0
2017-06-10T00:04:16.431Z,0
2017-06-10T00:05:16.781Z,0
2017-06-10T00:06:16.841Z,0
2017-06-10T00:07:16.896Z,0
2017-06-10T00:08:16.948Z,0
2017-06-10T00:09:17.002Z,0
2017-06-10T00:10:17.063Z,0
2017-06-10T00:11:16.808Z,0
2017-06-10T00:12:17.167Z,0
2017-06-10T00:13:16.916Z,0
2017-06-10T00:14:16.982Z,0
2017-06-10T00:15:17.346Z,0
2017-06-10T00:16:16.782Z,0
2017-06-10T00:17:17.140Z,0
2017-06-10T00:18:17.495Z,0
2017-06-10T00:19:17.562Z,0
2017-06-10T00:20:17.603Z,0
2017-06-10T00:21:17.670Z,0
2017-06-10T00:22:17.717Z,0
2017-06-10T00:23:17.470Z,0
2017-06-10T00:24:17.823Z,0
2017-06-10T00:25:17.881Z,0
2017-06-10T00:26:17.934Z,0
2017-06-10T00:27:17.991Z,0
2017-06-10T00:28:18.047Z,0
2017-06-10T00:29:18.124Z,0
2017-06-10T00:30:17.858Z,0
2017-06-10T00:31:17.906Z,0
2017-06-10T00:32:18.263Z,0
2017-06-10T00:33:18.318Z,0
2017-06-10T00:34:18.374Z,0
2017-06-10T00:35:18.429Z,0
2017-06-10T00:36:18.486Z,0
2017-06-10T00:37:18.539Z,0
2017-06-10T00:38:18.587Z,0
2017-06-10T00:39:18.650Z,0
2017-06-10T00:40:18.699Z,0
2017-06-10T00:41:18.755Z,0
2017-06-10T00:42:18.814Z,0
2017-06-10T00:43:18.870Z,0
2017-06-10T00:44:18.919Z,0
2017-06-10T00:45:18.973Z,0
2017-06-10T00:46:19.032Z,0
2017-06-10T00:47:19.088Z,0
2017-06-10T00:48:19.139Z,0
2017-06-10T00:49:19.197Z,0
2017-06-10T00:50:19.248Z,0
2017-06-10T00:51:19.305Z,0
2017-06-10T00:52:19.360Z,0
2017-06-10T00:53:19.420Z,0
2017-06-10T00:54:19.468Z,0
2017-06-10T00:55:19.527Z,0
2017-06-10T00:56:19.583Z,0
2017-06-10T00:57:19.637Z,0
2017-06-10T00:58:19.692Z,0
2017-06-10T00:59:19.747Z,0
2017-06-10T01:00:19.800Z,0
2017-06-10T01:01:19.850Z,0
2017-06-10T01:02:19.909Z,0
2017-06-10T01:03:19.961Z,0
2017-06-10T01:04:20.017Z,0
2017-06-10T01:05:20.077Z,0
2017-06-10T01:06:20.127Z,0
2017-06-10T01:07:20.188Z,0
2017-06-10T01:08:20.238Z,0
2017-06-10T01:09:20.290Z,0
2017-06-10T01:10:20.351Z,0
2017-06-10T01:11:20.405Z,0
2017-06-10T01:12:20.457Z,0
2017-06-10T01:13:20.514Z,0
2017-06-10T01:14:20.569Z,0
2017-06-10T01:15:20.618Z,0
2017-06-10T01:16:20.676Z,0
2017-06-10T01:17:20.733Z,0
2017-06-10T01:18:20.793Z,0
2017-06-10T01:19:20.840Z,0
2017-06-10T01:20:20.895Z,0
2017-06-10T01:21:20.954Z,0
2017-06-10T01:22:20.706Z,0
2017-06-10T01:23:21.065Z,0
2017-06-10T01:24:21.116Z,0
2017-06-10T01:25:21.199Z,0
2017-06-10T01:26:21.225Z,0
2017-06-10T01:27:21.282Z,0
2017-06-10T01:28:21.337Z,0
2017-06-10T01:29:21.390Z,0
2017-06-10T01:30:21.446Z,0
2017-06-10T01:31:21.506Z,0
2017-06-10T01:32:21.557Z,0
2017-06-10T01:33:21.610Z,0
2017-06-10T01:34:21.663Z,0
2017-06-10T01:35:21.718Z,0
2017-06-10T01:36:21.775Z,0
2017-06-10T01:37:21.831Z,0
2017-06-10T01:38:21.891Z,0
2017-06-10T01:39:21.943Z,0
2017-06-10T01:40:21.995Z,0
2017-06-10T01:41:22.048Z,0
2017-06-10T01:42:22.105Z,0
2017-06-10T01:43:22.159Z,0
2017-06-10T01:44:22.214Z,0
2017-06-10T01:45:22.265Z,0
2017-06-10T01:46:22.325Z,0
2017-06-10T01:47:22.377Z,0
2017-06-10T01:48:22.428Z,0
2017-06-10T01:49:22.487Z,0
2017-06-10T01:50:22.539Z,0
2017-06-10T01:51:22.598Z,0
2017-06-10T01:52:22.658Z,0
2017-06-10T01:53:22.706Z,0
2017-06-10T01:54:22.762Z,0
2017-06-10T01:55:22.818Z,0
2017-06-10T01:56:22.868Z,0
2017-06-10T01:57:22.923Z,0
2017-06-10T01:58:22.979Z,0
2017-06-10T01:59:23.038Z,0
2017-06-10T02:00:23.091Z,0
2017-06-10T02:01:23.145Z,0
2017-06-10T02:02:23.197Z,0
2017-06-10T02:03:23.252Z,0
2017-06-10T02:04:23.308Z,0
2017-06-10T02:05:23.360Z,0
2017-06-10T02:06:23.417Z,0
2017-06-10T02:07:23.470Z,0
2017-06-10T02:08:23.529Z,0
2017-06-10T02:09:23.581Z,0
2017-06-10T02:10:23.639Z,0
2017-06-10T02:11:23.688Z,0
2017-06-10T02:12:23.442Z,0
2017-06-10T02:13:23.499Z,0
2017-06-10T02:14:23.852Z,0
2017-06-10T02:15:23.915Z,0
2017-06-10T02:16:23.659Z,0
2017-06-10T02:17:24.020Z,0
2017-06-10T02:18:24.076Z,0
2017-06-10T02:19:24.130Z,0
2017-06-10T02:20:24.181Z,0
2017-06-10T02:21:24.237Z,0
2017-06-10T02:22:24.290Z,0
2017-06-10T02:23:24.351Z,0
2017-06-10T02:24:24.402Z,0
2017-06-10T02:25:24.452Z,0
2017-06-10T02:26:24.508Z,0
2017-06-10T02:27:24.562Z,0
2017-06-10T02:28:24.318Z,0
2017-06-10T02:29:24.678Z,0
2017-06-10T02:30:24.735Z,0
2017-06-10T02:31:24.781Z,0
2017-06-10T02:32:24.838Z,0
2017-06-10T02:33:24.899Z,0
2017-06-10T02:34:24.948Z,0
2017-06-10T02:35:25.002Z,0
2017-06-10T02:36:25.059Z,0
2017-06-10T02:37:25.110Z,0
2017-06-10T02:38:25.169Z,0
2017-06-10T02:39:25.223Z,0
2017-06-10T02:40:25.277Z,0
2017-06-10T02:41:25.333Z,0
2017-06-10T02:42:25.402Z,0
2017-06-10T02:43:25.444Z,0
2017-06-10T02:44:25.499Z,0
2017-06-10T02:45:25.553Z,0
2017-06-10T02:46:25.605Z,0
2017-06-10T02:47:25.658Z,0
2017-06-10T02:48:25.721Z,0
2017-06-10T02:49:25.769Z,0
2017-06-10T02:50:25.824Z,0
2017-06-10T02:51:25.881Z,0
2017-06-10T02:52:25.939Z,0
2017-06-10T02:53:25.989Z,0
2017-06-10T02:54:26.045Z,0
2017-06-10T02:55:26.095Z,0
2017-06-10T02:56:26.154Z,0
2017-06-10T02:57:26.208Z,0
2017-06-10T02:58:26.264Z,0
2017-06-10T02:59:26.325Z,0
2017-06-10T03:00:26.371Z,0
2017-06-10T03:01:26.127Z,0
2017-06-10T03:02:26.181Z,0
2017-06-10T03:03:26.233Z,0
2017-06-10T03:04:26.588Z,0
2017-06-10T03:05:26.347Z,0
2017-06-10T03:06:26.703Z,0
2017-06-10T03:07:26.765Z,0
2017-06-10T03:08:26.807Z,0
2017-06-10T03:09:26.864Z,0
2017-06-10T03:10:26.920Z,0
2017-06-10T03:11:26.972Z,0
2017-06-10T03:12:27.028Z,0
2017-06-10T03:13:27.086Z,0
2017-06-10T03:14:27.138Z,0
2017-06-10T03:15:27.194Z,0
2017-06-10T03:16:27.244Z,0
2017-06-10T03:17:27.303Z,0
2017-06-10T03:18:27.355Z,0
2017-06-10T03:19:27.412Z,0
2017-06-10T03:20:27.468Z,0
2017-06-10T03:21:27.521Z,0
2017-06-10T03:22:27.576Z,0
2017-06-10T03:23:27.631Z,0
2017-06-10T03:24:27.689Z,0
2017-06-10T03:25:27.747Z,0
2017-06-10T03:26:27.793Z,0
2017-06-10T03:27:27.850Z,0
2017-06-10T03:28:27.904Z,4
2017-06-10T03:29:27.958Z,4
2017-06-10T03:30:27.710Z,4
2017-06-10T03:31:28.068Z,4
2017-06-10T03:32:28.129Z,4
2017-06-10T03:33:28.182Z,4
2017-06-10T03:34:28.231Z,4
2017-06-10T03:35:28.289Z,4
2017-06-10T03:36:28.344Z,4
2017-06-10T03:37:28.397Z,4
2017-06-10T03:38:28.146Z,4
2017-06-10T03:39:28.501Z,4
2017-06-10T03:40:28.563Z,4
2017-06-10T03:41:28.616Z,8
2017-06-10T03:42:28.671Z,8
2017-06-10T03:43:28.722Z,4
2017-06-10T03:44:28.780Z,4
2017-06-10T03:45:28.837Z,8
2017-06-10T03:46:28.590Z,8
2017-06-10T03:47:28.643Z,8
2017-06-10T03:48:29.001Z,8
2017-06-10T03:49:29.057Z,12
2017-06-10T03:50:29.108Z,12
2017-06-10T03:51:29.164Z,12
2017-06-10T03:52:29.219Z,16
2017-06-10T03:53:29.277Z,12
2017-06-10T03:54:29.326Z,12
2017-06-10T03:55:29.391Z,12
2017-06-10T03:56:29.436Z,12
2017-06-10T03:57:29.492Z,12
2017-06-10T03:58:29.546Z,12
2017-06-10T03:59:29.298Z,16
2017-06-10T04:00:29.656Z,20
2017-06-10T04:01:29.720Z,16
2017-06-10T04:02:29.770Z,12
2017-06-10T04:03:29.517Z,16
2017-06-10T04:04:29.877Z,16
2017-06-10T04:05:29.931Z,20
2017-06-10T04:06:29.986Z,20
2017-06-10T04:07:30.036Z,16
2017-06-10T04:08:30.098Z,16
2017-06-10T04:09:30.149Z,20
2017-06-10T04:10:30.202Z,24
2017-06-10T04:11:30.259Z,20
2017-06-10T04:12:30.316Z,16
2017-06-10T04:13:30.369Z,20
2017-06-10T04:14:30.425Z,20
2017-06-10T04:15:30.485Z,20
2017-06-10T04:16:30.534Z,16
2017-06-10T04:17:30.582Z,24
2017-06-10T04:18:30.646Z,24
2017-06-10T04:19:30.696Z,12
2017-06-10T04:20:30.749Z,16
2017-06-10T04:21:30.806Z,20
2017-06-10T04:22:30.889Z,20
2017-06-10T04:23:30.919Z,32
2017-06-10T04:24:30.998Z,32
2017-06-10T04:25:31.026Z,20
2017-06-10T04:26:31.083Z,32
2017-06-10T04:27:31.136Z,24
2017-06-10T04:28:31.192Z,36
2017-06-10T04:29:31.245Z,24
2017-06-10T04:30:31.302Z,20
2017-06-10T04:31:31.354Z,28
2017-06-10T04:32:31.435Z,32
2017-06-10T04:33:31.465Z,40
2017-06-10T04:34:31.523Z,52
2017-06-10T04:35:31.578Z,56
2017-06-10T04:36:31.630Z,64
2017-06-10T04:37:31.685Z,56
2017-06-10T04:38:31.739Z,56
2017-06-10T04:39:31.796Z,52
2017-06-10T04:40:31.555Z,44
2017-06-10T04:41:31.906Z,44
2017-06-10T04:42:31.660Z,56
2017-06-10T04:43:32.015Z,56
2017-06-10T04:44:32.069Z,52
2017-06-10T04:45:31.821Z,60
2017-06-10T04:46:32.177Z,52
2017-06-10T04:47:32.233Z,36
2017-06-10T04:48:32.291Z,36
2017-06-10T04:49:32.343Z,24
2017-06-10T04:50:32.392Z,24
2017-06-10T04:51:32.151Z,24
2017-06-10T04:52:32.509Z,40
2017-06-10T04:53:32.563Z,52
2017-06-10T04:54:32.616Z,64
2017-06-10T04:55:32.670Z,68
2017-06-10T04:56:32.725Z,80
2017-06-10T04:57:32.785Z,68
2017-06-10T04:58:32.534Z,48
2017-06-10T04:59:32.588Z,36
2017-06-10T05:00:32.645Z,48
2017-06-10T05:01:33.003Z,68
2017-06-10T05:02:33.054Z,72
2017-06-10T05:03:33.110Z,80
2017-06-10T05:04:33.162Z,76
2017-06-10T05:05:33.218Z,64
2017-06-10T05:06:33.283Z,60
2017-06-10T05:07:33.325Z,60
2017-06-10T05:08:33.105Z,64
2017-06-10T05:09:33.436Z,68
2017-06-10T05:10:33.496Z,80
2017-06-10T05:11:33.547Z,100
2017-06-10T05:12:33.600Z,80
2017-06-10T05:13:33.658Z,80
2017-06-10T05:14:33.707Z,92
2017-06-10T05:15:33.766Z,96
2017-06-10T05:16:33.822Z,64
2017-06-10T05:17:33.872Z,96
2017-06-10T05:18:33.934Z,108
2017-06-10T05:19:33.991Z,80
2017-06-10T05:20:34.037Z,108
2017-06-10T05:21:34.092Z,92
2017-06-10T05:22:34.151Z,104
2017-06-10T05:23:34.201Z,96
2017-06-10T05:24:34.258Z,92
2017-06-10T05:25:34.312Z,96
2017-06-10T05:26:34.069Z,144
2017-06-10T05:27:34.427Z,164
2017-06-10T05:28:34.474Z,184
2017-06-10T05:29:34.530Z,160
2017-06-10T05:30:34.584Z,120
2017-06-10T05:31:34.641Z,108
2017-06-10T05:32:34.700Z,84
2017-06-10T05:33:34.752Z,84
2017-06-10T05:34:34.810Z,144
2017-06-10T05:35:34.861Z,112
2017-06-10T05:36:34.917Z,72
2017-06-10T05:37:34.973Z,64
2017-06-10T05:38:35.021Z,80
2017-06-10T05:39:34.779Z,160
2017-06-10T05:40:35.133Z,188
2017-06-10T05:41:35.185Z,192
2017-06-10T05:42:35.246Z,228
2017-06-10T05:43:35.300Z,160
2017-06-10T05:44:35.354Z,216
2017-06-10T05:45:35.405Z,340
2017-06-10T05:46:35.469Z,308
2017-06-10T05:47:35.522Z,304
2017-06-10T05:48:35.270Z,364
2017-06-10T05:49:35.326Z,236
2017-06-10T05:50:35.385Z,204
2017-06-10T05:51:35.434Z,124
2017-06-10T05:52:35.795Z,196
2017-06-10T05:53:35.845Z,252
2017-06-10T05:54:35.900Z,204
2017-06-10T05:55:35.958Z,228
2017-06-10T05:56:36.010Z,232
2017-06-10T05:57:35.763Z,188
2017-06-10T05:58:36.122Z,156
2017-06-10T05:59:36.176Z,208
2017-06-10T06:00:36.229Z,196
2017-06-10T06:01:36.286Z,196
2017-06-10T06:02:36.342Z,184
2017-06-10T06:03:36.396Z,200
2017-06-10T06:04:36.452Z,188
2017-06-10T06:05:36.506Z,160
2017-06-10T06:06:36.279Z,168
2017-06-10T06:07:36.615Z,204
2017-06-10T06:08:36.677Z,208
2017-06-10T06:09:36.730Z,236
2017-06-10T06:10:36.789Z,256
2017-06-10T06:11:36.843Z,180
2017-06-10T06:12:36.891Z,168
2017-06-10T06:13:36.945Z,236
2017-06-10T06:14:36.699Z,224
2017-06-10T06:15:37.085Z,184
2017-06-10T06:16:37.106Z,168
2017-06-10T06:17:37.164Z,212
2017-06-10T06:18:37.222Z,220
2017-06-10T06:19:37.267Z,268
2017-06-10T06:20:37.330Z,280
2017-06-10T06:21:37.405Z,304
2017-06-10T06:22:37.434Z,248
2017-06-10T06:23:37.491Z,284
2017-06-10T06:24:37.546Z,268
2017-06-10T06:25:37.599Z,220
2017-06-10T06:26:37.657Z,288
2017-06-10T06:27:37.711Z,476
2017-06-10T06:28:37.462Z,356
2017-06-10T06:29:37.820Z,412
2017-06-10T06:30:37.875Z,280
2017-06-10T06:31:37.929Z,240
2017-06-10T06:32:37.984Z,208
2017-06-10T06:33:38.041Z,204
2017-06-10T06:34:38.091Z,232
2017-06-10T06:35:37.544Z,224
2017-06-10T06:36:38.202Z,208
2017-06-10T06:37:38.258Z,224
2017-06-10T06:38:38.312Z,324
2017-06-10T06:39:38.370Z,328
2017-06-10T06:40:38.423Z,244
2017-06-10T06:41:38.175Z,256
2017-06-10T06:42:38.529Z,256
2017-06-10T06:43:38.284Z,224
2017-06-10T06:44:38.344Z,256
2017-06-10T06:45:38.702Z,168
2017-06-10T06:46:38.753Z,164
2017-06-10T06:47:38.807Z,200
2017-06-10T06:48:38.866Z,244
2017-06-10T06:49:38.915Z,200
2017-06-10T06:50:38.969Z,208
2017-06-10T06:51:39.026Z,312
2017-06-10T06:52:39.082Z,316
2017-06-10T06:53:39.135Z,548
2017-06-10T06:54:39.194Z,308
2017-06-10T06:55:39.246Z,292
2017-06-10T06:56:39.301Z,480
2017-06-10T06:57:39.353Z,704
2017-06-10T06:58:39.410Z,540
2017-06-10T06:59:39.469Z,484
2017-06-10T07:00:39.523Z,408
2017-06-10T07:01:39.572Z,352
2017-06-10T07:02:39.830Z,296
2017-06-10T07:03:39.683Z,352
2017-06-10T07:04:39.742Z,596
2017-06-10T07:05:39.791Z,672
2017-06-10T07:06:39.848Z,524
2017-06-10T07:07:39.904Z,388
2017-06-10T07:08:39.960Z,348
2017-06-10T07:09:40.012Z,420
2017-06-10T07:10:40.072Z,484
2017-06-10T07:11:40.122Z,464
2017-06-10T07:12:40.175Z,704
2017-06-10T07:13:40.258Z,540
2017-06-10T07:14:40.287Z,676
2017-06-10T07:15:40.344Z,520
2017-06-10T07:16:40.399Z,432
2017-06-10T07:17:40.456Z,432
2017-06-10T07:18:40.509Z,444
2017-06-10T07:19:40.568Z,548
2017-06-10T07:20:40.654Z,640
2017-06-10T07:21:40.675Z,648
2017-06-10T07:22:40.726Z,548
2017-06-10T07:23:40.813Z,796
2017-06-10T07:24:40.535Z,840
2017-06-10T07:25:40.895Z,1124
2017-06-10T07:26:40.946Z,680
2017-06-10T07:27:41.003Z,936
2017-06-10T07:28:41.057Z,756
2017-06-10T07:29:41.110Z,944
2017-06-10T07:30:41.166Z,628
2017-06-10T07:31:41.222Z,584
2017-06-10T07:32:41.275Z,888
2017-06-10T07:33:41.331Z,1208
2017-06-10T07:34:41.389Z,1124
2017-06-10T07:35:41.440Z,712
2017-06-10T07:36:41.194Z,536
2017-06-10T07:37:41.553Z,748
2017-06-10T07:38:41.604Z,1044
2017-06-10T07:39:41.661Z,944
2017-06-10T07:40:41.717Z,1076
2017-06-10T07:41:41.773Z,956
2017-06-10T07:42:41.826Z,876
2017-06-10T07:43:41.881Z,880
2017-06-10T07:44:41.939Z,796
2017-06-10T07:45:41.991Z,972
2017-06-10T07:46:42.048Z,1076
2017-06-10T07:47:42.102Z,904
2017-06-10T07:48:41.850Z,1096
2017-06-10T07:49:42.208Z,808
2017-06-10T07:50:42.263Z,948
2017-06-10T07:51:42.014Z,1120
2017-06-10T07:52:42.404Z,736
2017-06-10T07:53:42.428Z,1116
2017-06-10T07:54:42.687Z,856
2017-06-10T07:55:42.537Z,720
2017-06-10T07:56:42.294Z,512
2017-06-10T07:57:42.649Z,604
2017-06-10T07:58:42.911Z,1036
2017-06-10T07:59:42.763Z,848
2017-06-10T08:00:43.033Z,976
2017-06-10T08:01:42.871Z,1072
2017-06-10T08:02:42.923Z,1096
2017-06-10T08:03:42.978Z,940
2017-06-10T08:04:43.050Z,1208
2017-06-10T08:05:42.785Z,1144
2017-06-10T08:06:43.161Z,880
2017-06-10T08:07:43.197Z,1280
2017-06-10T08:08:43.251Z,912
2017-06-10T08:09:43.313Z,832
2017-06-10T08:10:43.363Z,816
2017-06-10T08:11:43.417Z,920
2017-06-10T08:12:43.473Z,852
2017-06-10T08:13:43.526Z,812
2017-06-10T08:14:43.582Z,1068
2017-06-10T08:15:43.642Z,836
2017-06-10T08:16:43.696Z,948
2017-06-10T08:17:43.745Z,876
2017-06-10T08:18:43.503Z,1284
2017-06-10T08:19:43.559Z,924
2017-06-10T08:20:43.912Z,1160
2017-06-10T08:21:43.968Z,1144
2017-06-10T08:22:44.019Z,948
2017-06-10T08:23:44.076Z,1284
2017-06-10T08:24:44.135Z,1392
2017-06-10T08:25:44.189Z,908
2017-06-10T08:26:44.239Z,1176
2017-06-10T08:27:44.304Z,1140
2017-06-10T08:28:44.577Z,1144
2017-06-10T08:29:44.406Z,1156
2017-06-10T08:30:44.157Z,1052
2017-06-10T08:31:44.515Z,956
2017-06-10T08:32:44.569Z,1196
2017-06-10T08:33:44.831Z,1284
2017-06-10T08:34:44.890Z,1064
2017-06-10T08:35:44.736Z,576
2017-06-10T08:36:44.789Z,660
2017-06-10T08:37:44.849Z,840
2017-06-10T08:38:44.898Z,640
2017-06-10T08:39:45.155Z,560
2017-06-10T08:40:45.008Z,624
2017-06-10T08:41:45.062Z,764
2017-06-10T08:42:45.122Z,1020
2017-06-10T08:43:45.171Z,1012
2017-06-10T08:44:45.234Z,960
2017-06-10T08:45:45.282Z,1284
2017-06-10T08:46:45.338Z,1044
2017-06-10T08:47:45.397Z,868
2017-06-10T08:48:45.454Z,956
2017-06-10T08:49:45.505Z,1264
2017-06-10T08:50:45.258Z,1136
2017-06-10T08:51:45.612Z,1212
2017-06-10T08:52:45.668Z,888
2017-06-10T08:53:45.421Z,1200
2017-06-10T08:54:45.775Z,1008
2017-06-10T08:55:45.838Z,1236
2017-06-10T08:56:45.893Z,1360
2017-06-10T08:57:45.948Z,632
2017-06-10T08:58:46.008Z,980
2017-06-10T08:59:46.059Z,1316
2017-06-10T09:00:46.114Z,868
2017-06-10T09:01:46.167Z,1056
2017-06-10T09:02:46.220Z,1048
2017-06-10T09:03:46.277Z,1108
2017-06-10T09:04:46.532Z,1076
2017-06-10T09:05:46.387Z,984
2017-06-10T09:06:46.443Z,1068
2017-06-10T09:07:46.505Z,1044
2017-06-10T09:08:46.252Z,1052
2017-06-10T09:09:46.607Z,644
2017-06-10T09:10:46.660Z,704
2017-06-10T09:11:46.720Z,704
2017-06-10T09:12:46.772Z,772
2017-06-10T09:13:46.826Z,808
2017-06-10T09:14:46.883Z,688
2017-06-10T09:15:46.936Z,620
2017-06-10T09:16:46.989Z,492
2017-06-10T09:17:46.743Z,612
2017-06-10T09:18:47.101Z,1204
2017-06-10T09:19:47.156Z,972
2017-06-10T09:20:47.213Z,880
2017-06-10T09:21:47.268Z,804
2017-06-10T09:22:47.333Z,792
2017-06-10T09:23:47.380Z,752
2017-06-10T09:24:47.433Z,740
2017-06-10T09:25:47.186Z,764
2017-06-10T09:26:47.541Z,824
2017-06-10T09:27:47.596Z,724
2017-06-10T09:28:47.684Z,636
2017-06-10T09:29:47.705Z,792
2017-06-10T09:30:47.761Z,836
2017-06-10T09:31:47.812Z,948
2017-06-10T09:32:47.893Z,788
2017-06-10T09:33:47.945Z,648
2017-06-10T09:34:48.008Z,792
2017-06-10T09:35:47.739Z,1384
2017-06-10T09:36:48.097Z,996
2017-06-10T09:37:48.146Z,1452
2017-06-10T09:38:48.202Z,988
2017-06-10T09:39:48.257Z,1024
2017-06-10T09:40:48.009Z,948
2017-06-10T09:41:48.365Z,1088
2017-06-10T09:42:48.422Z,1228
2017-06-10T09:43:48.476Z,904
2017-06-10T09:45:01.912Z,1088
2017-06-10T09:45:48.284Z,1012
2017-06-10T09:46:48.638Z,964
2017-06-10T09:47:48.695Z,1120
2017-06-10T09:48:48.756Z,940
2017-06-10T09:49:48.808Z,1084
2017-06-10T09:50:48.858Z,968
2017-06-10T09:51:48.912Z,900
2017-06-10T09:52:48.700Z,1272
2017-06-10T09:53:48.726Z,1276
2017-06-10T09:54:49.083Z,964
2017-06-10T09:55:49.138Z,936
2017-06-10T09:56:49.192Z,1088
2017-06-10T09:57:49.247Z,1196
2017-06-10T09:58:49.301Z,972
2017-06-10T09:59:49.054Z,1124
2017-06-10T10:00:49.412Z,1040
2017-06-10T10:01:49.466Z,1096
2017-06-10T10:02:49.522Z,1500
2017-06-10T10:03:49.577Z,1152
2017-06-10T10:04:49.633Z,1652
2017-06-10T10:05:49.686Z,1192
2017-06-10T10:06:49.440Z,1440
2017-06-10T10:07:49.794Z,1320
2017-06-10T10:08:49.548Z,1156
2017-06-10T10:09:49.915Z,1520
2017-06-10T10:10:49.662Z,1380
2017-06-10T10:11:50.011Z,904
2017-06-10T10:12:50.074Z,888
2017-06-10T10:13:50.122Z,1200
2017-06-10T10:14:50.180Z,1240
2017-06-10T10:15:49.933Z,1500
2017-06-10T10:16:50.290Z,1220
2017-06-10T10:17:50.342Z,1556
2017-06-10T10:18:50.400Z,1144
2017-06-10T10:19:50.451Z,1600
2017-06-10T10:21:03.897Z,1204
2017-06-10T10:21:50.779Z,1088
2017-06-10T10:22:50.624Z,1180
2017-06-10T10:23:50.674Z,808
2017-06-10T10:24:50.731Z,620
2017-06-10T10:25:50.780Z,496
2017-06-10T10:26:50.746Z,456
2017-06-10T10:27:50.890Z,464
2017-06-10T10:28:50.945Z,480
2017-06-10T10:29:51.004Z,476
2017-06-10T10:30:50.752Z,436
2017-06-10T10:31:51.121Z,412
2017-06-10T10:32:51.166Z,508
2017-06-10T10:33:51.224Z,960
2017-06-10T10:34:51.277Z,1384
2017-06-10T10:35:51.340Z,1572
2017-06-10T10:36:51.386Z,1160
2017-06-10T10:37:51.442Z,872
2017-06-10T10:38:51.494Z,736
2017-06-10T10:39:51.554Z,964
2017-06-10T10:40:51.606Z,1176
2017-06-10T10:41:51.665Z,1204
2017-06-10T10:42:51.757Z,980
2017-06-10T10:43:51.771Z,1296
2017-06-10T10:44:51.523Z,996
2017-06-10T10:45:51.885Z,704
2017-06-10T10:46:51.937Z,824
2017-06-10T10:47:51.991Z,1000
2017-06-10T10:48:52.054Z,1496
2017-06-10T10:49:52.097Z,1000
2017-06-10T10:50:52.155Z,896
2017-06-10T10:51:52.207Z,708
2017-06-10T10:52:51.962Z,656
2017-06-10T10:53:52.318Z,688
2017-06-10T10:54:52.374Z,912
2017-06-10T10:55:52.428Z,1080
2017-06-10T10:56:52.486Z,852
2017-06-10T10:57:52.537Z,648
2017-06-10T10:58:52.798Z,664
2017-06-10T10:59:52.342Z,648
2017-06-10T11:00:52.710Z,524
2017-06-10T11:01:52.758Z,460
2017-06-10T11:02:52.809Z,384
2017-06-10T11:03:52.867Z,292
2017-06-10T11:04:52.921Z,260
2017-06-10T11:05:52.672Z,332
2017-06-10T11:06:53.032Z,380
2017-06-10T11:07:53.087Z,388
2017-06-10T11:08:52.843Z,584
2017-06-10T11:09:53.195Z,512
2017-06-10T11:10:53.249Z,1104
2017-06-10T11:11:53.310Z,1236
2017-06-10T11:12:53.359Z,1296
2017-06-10T11:13:53.415Z,1212
2017-06-10T11:14:53.470Z,1088
2017-06-10T11:15:53.529Z,616
2017-06-10T11:16:53.578Z,636
2017-06-10T11:17:53.633Z,1048
2017-06-10T11:18:53.690Z,1368
2017-06-10T11:19:53.746Z,1104
2017-06-10T11:20:53.800Z,880
2017-06-10T11:21:53.860Z,1032
2017-06-10T11:22:53.913Z,1072
2017-06-10T11:23:53.967Z,956
2017-06-10T11:24:54.019Z,848
2017-06-10T11:25:54.075Z,1032
2017-06-10T11:26:54.132Z,1108
2017-06-10T11:27:53.882Z,1164
2017-06-10T11:28:54.235Z,728
2017-06-10T11:29:54.296Z,608
2017-06-10T11:30:54.349Z,508
2017-06-10T11:31:54.399Z,428
2017-06-10T11:32:54.472Z,372
2017-06-10T11:33:54.213Z,396
2017-06-10T11:34:54.573Z,448
2017-06-10T11:35:54.320Z,484
2017-06-10T11:36:54.685Z,676
2017-06-10T11:37:54.734Z,864
2017-06-10T11:38:54.787Z,1368
2017-06-10T11:39:54.847Z,1520
2017-06-10T11:40:54.898Z,1228
2017-06-10T11:41:54.648Z,1296
2017-06-10T11:42:55.012Z,1236
2017-06-10T11:43:55.065Z,1384
2017-06-10T11:44:55.144Z,1028
2017-06-10T11:45:55.177Z,624
2017-06-10T11:46:55.229Z,624
2017-06-10T11:47:55.284Z,632
2017-06-10T11:48:55.341Z,576
2017-06-10T11:49:55.393Z,520
2017-06-10T11:50:55.449Z,500
2017-06-10T11:51:55.503Z,500
2017-06-10T11:52:55.560Z,516
2017-06-10T11:53:55.612Z,592
2017-06-10T11:54:55.669Z,640
2017-06-10T11:55:55.421Z,872
2017-06-10T11:56:55.781Z,944
2017-06-10T11:57:55.843Z,920
2017-06-10T11:58:55.889Z,828
2017-06-10T11:59:55.952Z,656
2017-06-10T12:00:55.997Z,732
2017-06-10T12:01:56.052Z,736
2017-06-10T12:02:56.111Z,720
2017-06-10T12:03:56.161Z,472
2017-06-10T12:04:56.225Z,372
2017-06-10T12:05:56.271Z,364
2017-06-10T12:06:56.329Z,380
2017-06-10T12:07:56.386Z,432
2017-06-10T12:08:56.441Z,504
2017-06-10T12:09:56.497Z,692
2017-06-10T12:10:56.552Z,748
2017-06-10T12:11:56.606Z,808
2017-06-10T12:12:56.663Z,916
2017-06-10T12:13:56.713Z,1188
2017-06-10T12:14:56.772Z,1108
2017-06-10T12:15:56.826Z,796
2017-06-10T12:16:56.575Z,860
2017-06-10T12:17:56.933Z,1272
2017-06-10T12:18:56.989Z,1192
2017-06-10T12:19:56.744Z,756
2017-06-10T12:20:57.100Z,784
2017-06-10T12:21:57.159Z,712
2017-06-10T12:22:57.209Z,544
2017-06-10T12:23:57.262Z,552
2017-06-10T12:24:57.021Z,612
2017-06-10T12:25:57.380Z,712
2017-06-10T12:26:57.434Z,712
2017-06-10T12:27:57.484Z,708
2017-06-10T12:28:57.542Z,636
2017-06-10T12:29:57.600Z,620
2017-06-10T12:30:57.352Z,628
2017-06-10T12:31:57.707Z,548
2017-06-10T12:32:57.763Z,564
2017-06-10T12:33:57.821Z,736
2017-06-10T12:34:57.872Z,732
2017-06-10T12:35:57.927Z,808
2017-06-10T12:36:57.987Z,832
2017-06-10T12:37:58.040Z,988
2017-06-10T12:38:58.093Z,1020
2017-06-10T12:39:58.146Z,828
2017-06-10T12:40:58.200Z,1280
2017-06-10T12:41:58.259Z,1048
2017-06-10T12:42:58.315Z,1508
2017-06-10T12:43:58.372Z,1104
2017-06-10T12:44:58.427Z,1228
2017-06-10T12:45:58.506Z,716
2017-06-10T12:46:58.536Z,692
2017-06-10T12:47:58.591Z,700
2017-06-10T12:48:58.644Z,912
2017-06-10T12:49:58.397Z,1140
2017-06-10T12:50:58.455Z,928
2017-06-10T12:51:58.811Z,852
2017-06-10T12:52:58.868Z,984
2017-06-10T12:53:58.616Z,944
2017-06-10T12:54:58.977Z,1092
2017-06-10T12:55:59.032Z,1348
2017-06-10T12:56:59.087Z,1336
2017-06-10T12:57:59.140Z,1128
2017-06-10T12:58:59.198Z,1192
2017-06-10T12:59:59.253Z,1436
2017-06-10T13:00:59.304Z,1192
2017-06-10T13:01:59.360Z,1260
2017-06-10T13:02:59.416Z,1476
2017-06-10T13:03:59.472Z,1316
2017-06-10T13:04:59.528Z,904
2017-06-10T13:05:59.583Z,728
2017-06-10T13:06:59.635Z,764
2017-06-10T13:07:59.387Z,924
2017-06-10T13:08:59.446Z,1120
2017-06-10T13:09:59.801Z,1228
2017-06-10T13:10:59.857Z,1172
2017-06-10T13:11:59.911Z,1000
2017-06-10T13:12:59.963Z,832
2017-06-10T13:14:00.020Z,812
2017-06-10T13:15:00.076Z,816
2017-06-10T13:16:00.133Z,832
2017-06-10T13:16:59.885Z,876
2017-06-10T13:18:00.242Z,940
2017-06-10T13:19:00.294Z,1068
2017-06-10T13:20:00.052Z,852
2017-06-10T13:21:00.403Z,980
2017-06-10T13:22:00.459Z,876
2017-06-10T13:23:00.514Z,1092
2017-06-10T13:24:00.574Z,840
2017-06-10T13:25:00.625Z,1300
2017-06-10T13:26:00.682Z,1076
2017-06-10T13:27:00.735Z,828
2017-06-10T13:28:00.789Z,1180
2017-06-10T13:29:00.846Z,848
2017-06-10T13:30:00.900Z,808
2017-06-10T13:31:00.957Z,1064
2017-06-10T13:32:01.011Z,1312
2017-06-10T13:33:01.066Z,832
2017-06-10T13:34:01.128Z,920
2017-06-10T13:35:01.177Z,912
2017-06-10T13:36:01.230Z,1060
2017-06-10T13:37:01.289Z,676
2017-06-10T13:38:01.342Z,772
2017-06-10T13:39:01.398Z,704
2017-06-10T13:40:01.485Z,856
2017-06-10T13:41:01.511Z,724
2017-06-10T13:42:01.565Z,880
2017-06-10T13:43:01.616Z,960
2017-06-10T13:44:01.669Z,1072
2017-06-10T13:45:01.732Z,920
2017-06-10T13:46:01.787Z,928
2017-06-10T13:47:01.835Z,876
2017-06-10T13:48:01.897Z,512
2017-06-10T13:49:01.950Z,556
2017-06-10T13:50:02.005Z,832
2017-06-10T13:51:02.057Z,1072
2017-06-10T13:52:02.111Z,1336
2017-06-10T13:53:02.167Z,844
2017-06-10T13:54:02.226Z,700
2017-06-10T13:55:02.278Z,1016
2017-06-10T13:56:02.334Z,792
2017-06-10T13:57:02.390Z,780
2017-06-10T13:58:02.443Z,1008
2017-06-10T13:59:02.499Z,852
2017-06-10T14:00:02.248Z,780